createdAt,value
2022-08-07T00:00:15.269Z,18.80
2022-08-07T00:02:46.121Z,18.50
2022-08-07T00:05:13.719Z,18.50
2022-08-07T00:07:41.736Z,18.40
2022-08-07T00:10:26.265Z,18.50
2022-08-07T00:13:00.503Z,18.40
2022-08-07T00:15:38.395Z,18.30
2022-08-07T00:18:24.500Z,18.30
2022-08-07T00:21:01.811Z,18.50
2022-08-07T00:23:32.378Z,18.30
2022-08-07T00:26:13.056Z,18.20
2022-08-07T00:28:55.712Z,18.40
2022-08-07T00:31:26.130Z,18.20
2022-08-07T00:34:08.827Z,18.30
2022-08-07T00:36:38.571Z,18.30
2022-08-07T00:39:12.754Z,18.50
2022-08-07T00:41:53.771Z,18.30
2022-08-07T00:44:41.287Z,18.20
2022-08-07T00:47:16.150Z,18.20
2022-08-07T00:50:19.186Z,18.20
2022-08-07T00:52:47.514Z,18.20
2022-08-07T00:55:17.515Z,18.10
2022-08-07T00:57:56.032Z,18.00
2022-08-07T01:00:24.169Z,18.00
2022-08-07T01:02:52.495Z,17.90
2022-08-07T01:05:24.542Z,17.80
2022-08-07T01:07:52.533Z,17.70
2022-08-07T01:10:22.915Z,17.90
2022-08-07T01:12:53.772Z,17.80
2022-08-07T01:16:01.180Z,17.70
2022-08-07T01:18:17.183Z,17.60
2022-08-07T01:20:57.397Z,17.90
2022-08-07T01:23:34.671Z,17.60
2022-08-07T01:26:07.864Z,17.40
2022-08-07T01:28:46.329Z,17.40
2022-08-07T01:31:20.748Z,17.50
2022-08-07T01:33:57.455Z,17.30
2022-08-07T01:36:33.892Z,17.20
2022-08-07T01:39:10.171Z,17.40
2022-08-07T01:42:01.549Z,17.10
2022-08-07T01:44:32.389Z,17.10
2022-08-07T01:47:01.171Z,17.20
2022-08-07T01:49:44.338Z,17.00
2022-08-07T01:52:13.409Z,17.00
2022-08-07T01:54:44.953Z,17.10
2022-08-07T01:57:24.789Z,16.90
2022-08-07T02:00:12.808Z,17.10
2022-08-07T02:03:18.795Z,16.70
2022-08-07T02:05:59.655Z,16.80
2022-08-07T02:08:33.577Z,16.80
2022-08-07T02:11:04.607Z,16.80
2022-08-07T02:13:56.456Z,16.70
2022-08-07T02:16:28.343Z,16.80
2022-08-07T02:20:04.819Z,16.80
2022-08-07T02:21:58.773Z,16.80
2022-08-07T02:24:29.322Z,16.70
2022-08-07T02:27:01.177Z,16.90
2022-08-07T02:29:31.583Z,16.50
2022-08-07T02:32:01.426Z,16.50
2022-08-07T02:34:30.219Z,16.50
2022-08-07T02:37:05.938Z,16.40
2022-08-07T02:40:02.359Z,16.50
2022-08-07T02:42:33.031Z,16.40
2022-08-07T02:45:07.328Z,16.40
2022-08-07T02:47:52.940Z,16.40
2022-08-07T02:50:21.162Z,16.60
2022-08-07T02:53:19.064Z,16.80
2022-08-07T02:56:03.235Z,16.50
2022-08-07T02:58:35.606Z,16.70
2022-08-07T03:01:05.819Z,16.70
2022-08-07T03:03:50.509Z,16.50
2022-08-07T03:06:34.674Z,16.80
2022-08-07T03:09:07.444Z,16.50
2022-08-07T03:11:52.151Z,16.60
2022-08-07T03:14:28.139Z,16.50
2022-08-07T03:16:57.128Z,16.30
2022-08-07T03:19:28.991Z,16.40
2022-08-07T03:21:58.783Z,16.30
2022-08-07T03:24:28.165Z,16.40
2022-08-07T03:27:02.967Z,16.10
2022-08-07T03:29:49.568Z,16.10
2022-08-07T03:32:31.313Z,16.10
2022-08-07T03:35:16.938Z,16.40
2022-08-07T03:37:54.080Z,16.00
2022-08-07T03:40:30.939Z,16.30
2022-08-07T03:43:13.545Z,16.00
2022-08-07T03:45:47.924Z,16.00
2022-08-07T03:48:19.026Z,16.00
2022-08-07T03:50:56.094Z,15.90
2022-08-07T03:53:50.205Z,16.00
2022-08-07T03:56:33.299Z,16.00
2022-08-07T03:59:09.935Z,16.00
2022-08-07T04:01:45.861Z,15.90
2022-08-07T04:04:17.874Z,15.90
2022-08-07T04:06:50.872Z,15.70
2022-08-07T04:09:23.408Z,15.80
2022-08-07T04:12:21.355Z,15.90
2022-08-07T04:14:46.217Z,15.60
2022-08-07T04:17:21.066Z,15.60
2022-08-07T04:19:54.914Z,15.70
2022-08-07T04:22:29.109Z,15.70
2022-08-07T04:25:01.937Z,15.60
2022-08-07T04:27:36.284Z,15.80
2022-08-07T04:30:35.768Z,15.60
2022-08-07T04:33:15.413Z,15.50
2022-08-07T04:35:50.990Z,15.60
2022-08-07T04:38:22.830Z,15.40
2022-08-07T04:40:51.714Z,15.70
2022-08-07T04:44:09.675Z,15.00
2022-08-07T04:47:07.874Z,16.00
2022-08-07T04:50:05.080Z,15.30
2022-08-07T04:53:07.210Z,15.30
2022-08-07T04:58:16.266Z,15.20
2022-08-07T04:59:18.325Z,15.20
2022-08-07T05:02:16.799Z,15.20
2022-08-07T05:05:54.210Z,15.30
2022-08-07T05:08:59.570Z,15.20
2022-08-07T05:11:57.262Z,15.50
2022-08-07T05:14:56.442Z,15.30
2022-08-07T05:17:17.496Z,15.40
2022-08-07T05:20:09.458Z,15.50
2022-08-07T05:22:40.034Z,14.90
2022-08-07T05:25:11.841Z,15.30
2022-08-07T05:28:03.575Z,15.30
2022-08-07T05:30:47.214Z,14.80
2022-08-07T05:33:17.968Z,15.60
2022-08-07T05:35:51.763Z,15.30
2022-08-07T05:39:00.263Z,15.30
2022-08-07T05:41:14.393Z,15.70
2022-08-07T05:44:07.931Z,15.60
2022-08-07T05:46:38.212Z,15.60
2022-08-07T05:49:11.702Z,15.50
2022-08-07T05:51:46.522Z,16.00
2022-08-07T05:54:30.796Z,16.10
2022-08-07T05:57:06.783Z,16.00
2022-08-07T05:59:47.232Z,15.80
2022-08-07T06:02:29.697Z,15.90
2022-08-07T06:05:05.049Z,16.00
2022-08-07T06:08:14.885Z,16.00
2022-08-07T06:10:23.905Z,16.10
2022-08-07T06:12:51.919Z,16.10
2022-08-07T06:15:20.422Z,16.10
2022-08-07T06:17:53.364Z,16.40
2022-08-07T06:20:25.569Z,16.40
2022-08-07T06:23:46.890Z,16.30
2022-08-07T06:26:00.857Z,16.50
2022-08-07T06:28:30.582Z,16.70
2022-08-07T06:30:58.982Z,16.60
2022-08-07T06:33:29.513Z,16.70
2022-08-07T06:36:11.884Z,16.90
2022-08-07T06:38:59.054Z,16.90
2022-08-07T06:42:02.081Z,17.10
2022-08-07T06:44:58.268Z,17.10
2022-08-07T06:47:27.010Z,17.20
2022-08-07T06:49:58.486Z,17.20
2022-08-07T06:52:36.777Z,17.40
2022-08-07T06:55:34.051Z,17.30
2022-08-07T06:58:10.246Z,17.60
2022-08-07T07:00:46.657Z,17.60
2022-08-07T07:03:39.582Z,17.70
2022-08-07T07:06:10.996Z,17.70
2022-08-07T07:08:39.881Z,17.70
2022-08-07T07:12:08.161Z,17.80
2022-08-07T07:14:03.981Z,18.00
2022-08-07T07:16:49.981Z,17.90
2022-08-07T07:19:55.286Z,18.10
2022-08-07T07:22:36.193Z,18.10
2022-08-07T07:26:33.329Z,18.20
2022-08-07T07:28:07.736Z,18.20
2022-08-07T07:31:21.574Z,18.20
2022-08-07T07:33:57.143Z,18.30
2022-08-07T07:36:32.564Z,18.30
2022-08-07T07:39:05.159Z,18.40
2022-08-07T07:41:50.736Z,18.40
2022-08-07T07:44:26.043Z,18.50
2022-08-07T07:47:04.361Z,18.60
2022-08-07T07:50:33.020Z,18.70
2022-08-07T07:52:32.278Z,18.80
2022-08-07T07:55:00.699Z,19.00
2022-08-07T07:57:50.296Z,19.00
2022-08-07T08:00:29.028Z,19.10
2022-08-07T08:03:06.215Z,19.10
2022-08-07T08:05:54.311Z,19.20
2022-08-07T08:08:35.636Z,19.20
2022-08-07T08:11:13.668Z,19.40
2022-08-07T08:13:54.402Z,19.90
2022-08-07T08:16:52.460Z,19.40
2022-08-07T08:20:17.829Z,19.60
2022-08-07T08:22:33.297Z,19.60
2022-08-07T08:25:26.884Z,19.60
2022-08-07T08:28:16.859Z,19.70
2022-08-07T08:30:58.171Z,19.80
2022-08-07T08:33:34.199Z,19.90
2022-08-07T08:36:03.955Z,19.90
2022-08-07T08:38:41.052Z,20.00
2022-08-07T08:41:15.630Z,20.10
2022-08-07T08:43:58.822Z,19.90
2022-08-07T08:46:38.759Z,20.20
2022-08-07T08:49:46.361Z,20.20
2022-08-07T08:52:32.229Z,20.20
2022-08-07T08:55:12.186Z,20.20
2022-08-07T08:58:28.301Z,20.30
2022-08-07T09:01:15.163Z,20.30
2022-08-07T09:04:03.896Z,20.50
2022-08-07T09:06:49.757Z,20.60
2022-08-07T09:09:43.600Z,20.80
2022-08-07T09:13:06.902Z,20.70
2022-08-07T09:16:23.002Z,20.80
2022-08-07T09:19:03.410Z,20.80
2022-08-07T09:22:10.320Z,20.90
2022-08-07T09:25:00.450Z,21.00
2022-08-07T09:28:01.294Z,21.10
2022-08-07T09:30:54.906Z,21.20
2022-08-07T09:33:52.456Z,21.30
2022-08-07T09:36:43.132Z,21.40
2022-08-07T09:39:54.190Z,21.50
2022-08-07T09:42:39.466Z,21.60
2022-08-07T09:47:24.643Z,21.70
2022-08-07T09:48:55.903Z,21.70
2022-08-07T09:52:10.080Z,21.60
2022-08-07T09:54:47.940Z,21.80
2022-08-07T09:57:46.776Z,21.90
2022-08-07T10:00:16.692Z,21.90
2022-08-07T10:04:07.015Z,22.00
2022-08-07T10:06:35.713Z,22.10
2022-08-07T10:09:23.829Z,22.20
2022-08-07T10:12:39.603Z,22.30
2022-08-07T10:15:44.515Z,22.50
2022-08-07T10:18:44.518Z,22.50
2022-08-07T10:22:12.157Z,22.60
2022-08-07T10:24:45.966Z,22.70
2022-08-07T10:27:18.075Z,23.00
2022-08-07T10:30:06.554Z,23.20
2022-08-07T10:33:13.120Z,23.30
2022-08-07T10:36:29.304Z,23.30
2022-08-07T10:39:16.619Z,23.40
2022-08-07T10:42:01.671Z,23.60
2022-08-07T10:45:44.089Z,23.70
2022-08-07T10:48:20.404Z,23.90
2022-08-07T10:50:54.295Z,23.90
2022-08-07T10:53:44.101Z,23.90
2022-08-07T10:56:20.998Z,23.90
2022-08-07T10:59:21.685Z,24.00
2022-08-07T11:02:33.563Z,24.00
2022-08-07T11:05:19.585Z,24.20
2022-08-07T11:08:08.780Z,24.40
2022-08-07T11:11:00.061Z,24.50
2022-08-07T11:14:44.914Z,24.60
2022-08-07T11:16:55.755Z,24.70
2022-08-07T11:19:31.150Z,24.80
2022-08-07T11:22:11.148Z,25.00
2022-08-07T11:25:09.193Z,25.10
2022-08-07T11:28:01.292Z,25.20
2022-08-07T11:30:42.677Z,25.20
2022-08-07T11:33:53.961Z,25.00
2022-08-07T11:36:49.661Z,24.90
2022-08-07T11:40:00.504Z,24.90
2022-08-07T11:42:51.054Z,25.00
2022-08-07T11:45:49.890Z,25.10
2022-08-07T11:48:35.756Z,25.20
2022-08-07T11:51:40.919Z,25.30
2022-08-07T11:54:26.657Z,25.30
2022-08-07T11:57:14.314Z,25.40
2022-08-07T12:00:11.440Z,25.60
2022-08-07T12:02:52.574Z,25.70
2022-08-07T12:05:41.699Z,26.00
2022-08-07T12:08:38.030Z,26.20
2022-08-07T12:11:22.518Z,26.20
2022-08-07T12:14:25.252Z,25.90
2022-08-07T12:17:00.570Z,25.90
2022-08-07T12:20:03.279Z,25.80
2022-08-07T12:22:59.138Z,25.80
2022-08-07T12:26:05.722Z,26.00
2022-08-07T12:28:58.891Z,26.20
2022-08-07T12:32:02.220Z,26.30
2022-08-07T12:34:35.927Z,26.50
2022-08-07T12:37:11.142Z,26.50
2022-08-07T12:39:50.720Z,26.50
2022-08-07T12:42:27.324Z,26.70
2022-08-07T12:44:59.035Z,26.80
2022-08-07T12:47:40.618Z,26.90
2022-08-07T12:50:33.951Z,27.10
2022-08-07T12:54:37.452Z,27.40
2022-08-07T12:56:34.633Z,27.60
2022-08-07T12:59:08.449Z,27.70
2022-08-07T13:01:54.641Z,27.50
2022-08-07T13:05:01.369Z,27.30
2022-08-07T13:08:12.081Z,27.10
2022-08-07T13:10:52.619Z,27.00
2022-08-07T13:13:46.703Z,27.10
2022-08-07T13:16:40.514Z,27.20
2022-08-07T13:19:45.700Z,27.40
2022-08-07T13:22:28.384Z,27.10
2022-08-07T13:24:59.166Z,27.40
2022-08-07T13:28:11.077Z,27.10
2022-08-07T13:30:41.139Z,27.10
2022-08-07T13:34:31.693Z,27.20
2022-08-07T13:36:51.427Z,27.50
2022-08-07T13:40:32.832Z,28.00
2022-08-07T13:42:35.226Z,28.50
2022-08-07T13:45:20.682Z,29.30
2022-08-07T13:48:06.221Z,29.90
2022-08-07T13:50:45.073Z,30.30
2022-08-07T13:53:59.364Z,30.80
2022-08-07T13:56:35.849Z,31.20
2022-08-07T13:59:20.387Z,31.50
2022-08-07T14:02:08.403Z,31.60
2022-08-07T14:05:07.531Z,31.50
2022-08-07T14:07:59.683Z,31.60
2022-08-07T14:10:42.484Z,31.60
2022-08-07T14:13:16.634Z,31.80
2022-08-07T14:15:57.053Z,32.10
2022-08-07T14:18:33.210Z,32.40
2022-08-07T14:22:00.604Z,32.80
2022-08-07T14:24:08.933Z,33.20
2022-08-07T14:26:50.690Z,33.50
2022-08-07T14:30:06.135Z,33.60
2022-08-07T14:32:19.269Z,33.30
2022-08-07T14:34:49.105Z,33.40
2022-08-07T14:37:38.760Z,33.30
2022-08-07T14:40:25.985Z,32.90
2022-08-07T14:43:55.476Z,33.30
2022-08-07T14:45:51.903Z,33.60
2022-08-07T14:48:28.676Z,34.10
2022-08-07T14:54:09.548Z,34.80
2022-08-07T14:56:43.481Z,35.30
2022-08-07T15:02:34.360Z,35.70
2022-08-07T15:05:01.480Z,35.30
2022-08-07T15:07:51.299Z,35.20
2022-08-07T15:10:26.156Z,35.30
2022-08-07T15:12:59.633Z,35.20
2022-08-07T15:15:38.542Z,35.00
2022-08-07T15:21:44.215Z,33.80
2022-08-07T15:27:15.299Z,33.40
2022-08-07T15:30:09.461Z,33.50
2022-08-07T15:32:51.080Z,33.80
2022-08-07T15:42:42.153Z,34.70
2022-08-07T15:44:09.539Z,34.60
2022-08-07T15:52:30.812Z,35.00
2022-08-07T15:55:04.158Z,34.70
2022-08-07T15:57:48.123Z,34.40
2022-08-07T16:00:31.079Z,33.80
2022-08-07T16:03:02.956Z,33.50
2022-08-07T16:05:32.341Z,33.40
2022-08-07T16:08:31.647Z,33.50
2022-08-07T16:11:26.504Z,33.60
2022-08-07T16:14:05.309Z,33.60
2022-08-07T16:16:48.583Z,33.50
2022-08-07T16:19:42.605Z,33.60
2022-08-07T16:22:55.549Z,33.70
2022-08-07T16:25:54.631Z,34.10
2022-08-07T16:30:09.135Z,34.10
2022-08-07T16:31:51.312Z,34.40
2022-08-07T16:34:31.231Z,34.80
2022-08-07T16:37:02.830Z,35.10
2022-08-07T16:39:57.889Z,35.00
2022-08-07T16:42:45.166Z,34.60
2022-08-07T16:46:40.936Z,34.10
2022-08-07T16:48:58.384Z,33.60
2022-08-07T16:51:57.527Z,33.10
2022-08-07T16:54:36.726Z,32.90
2022-08-07T16:58:02.390Z,32.60
2022-08-07T17:00:29.488Z,32.30
2022-08-07T17:03:05.850Z,32.20
2022-08-07T17:06:29.383Z,32.30
2022-08-07T17:09:10.530Z,32.30
2022-08-07T17:12:35.875Z,32.40
2022-08-07T17:15:05.226Z,32.40
2022-08-07T17:17:45.955Z,32.50
2022-08-07T17:20:37.710Z,32.60
2022-08-07T17:23:14.685Z,32.80
2022-08-07T17:25:51.832Z,33.10
2022-08-07T17:28:38.227Z,33.30
2022-08-07T17:31:17.205Z,33.60
2022-08-07T17:34:32.592Z,34.00
2022-08-07T17:36:58.065Z,34.20
2022-08-07T17:40:03.086Z,34.40
2022-08-07T17:43:01.003Z,34.50
2022-08-07T17:45:43.715Z,34.60
2022-08-07T17:48:33.422Z,34.70
2022-08-07T17:51:59.733Z,34.70
2022-08-07T17:54:29.571Z,34.40
2022-08-07T17:57:18.580Z,34.20
2022-08-07T17:59:56.241Z,34.00
2022-08-07T18:02:36.365Z,33.80
2022-08-07T18:05:20.650Z,33.80
2022-08-07T18:08:15.483Z,34.00
2022-08-07T18:12:06.490Z,34.20
2022-08-07T18:14:24.145Z,34.30
2022-08-07T18:16:58.995Z,34.50
2022-08-07T18:21:04.030Z,34.60
2022-08-07T18:22:36.182Z,34.50
2022-08-07T18:25:23.869Z,34.50
2022-08-07T18:28:15.412Z,34.50
2022-08-07T18:31:25.118Z,34.40
2022-08-07T18:35:00.808Z,34.20
2022-08-07T18:38:58.897Z,34.30
2022-08-07T18:40:56.162Z,34.20
2022-08-07T18:43:42.855Z,34.00
2022-08-07T18:46:33.589Z,33.90
2022-08-07T18:50:31.361Z,33.80
2022-08-07T18:52:53.650Z,33.70
2022-08-07T18:55:55.908Z,33.60
2022-08-07T18:58:51.770Z,33.60
2022-08-07T19:02:18.121Z,33.50
2022-08-07T19:04:39.718Z,33.30
2022-08-07T19:07:35.143Z,33.00
2022-08-07T19:10:21.912Z,32.70
2022-08-07T19:13:12.063Z,32.40
2022-08-07T19:16:05.959Z,32.00
2022-08-07T19:19:00.151Z,31.60
2022-08-07T19:21:47.622Z,31.20
2022-08-07T19:24:30.073Z,30.80
2022-08-07T19:28:58.139Z,30.50
2022-08-07T19:31:04.152Z,30.10
2022-08-07T19:32:45.281Z,29.70
2022-08-07T19:35:22.549Z,29.20
2022-08-07T19:37:59.567Z,28.80
2022-08-07T19:40:34.697Z,28.30
2022-08-07T19:43:43.146Z,28.00
2022-08-07T19:46:09.351Z,27.70
2022-08-07T19:48:43.620Z,27.30
2022-08-07T19:51:20.068Z,27.10
2022-08-07T19:54:30.987Z,26.90
2022-08-07T19:57:52.140Z,26.70
2022-08-07T19:59:41.706Z,26.50
2022-08-07T20:02:19.790Z,26.30
2022-08-07T20:04:58.002Z,26.20
2022-08-07T20:07:46.662Z,26.00
2022-08-07T20:10:36.757Z,25.90
2022-08-07T20:13:27.169Z,25.80
2022-08-07T20:16:02.376Z,25.70
2022-08-07T20:18:32.709Z,25.60
2022-08-07T20:21:21.005Z,25.50
2022-08-07T20:24:00.890Z,25.40
2022-08-07T20:26:38.507Z,25.30
2022-08-07T20:29:47.210Z,25.20
2022-08-07T20:32:11.589Z,25.20
2022-08-07T20:34:52.705Z,25.00
2022-08-07T20:37:29.558Z,25.00
2022-08-07T20:40:02.560Z,25.00
2022-08-07T20:42:34.490Z,24.80
2022-08-07T20:45:33.721Z,24.70
2022-08-07T20:47:58.229Z,24.70
2022-08-07T20:50:29.091Z,24.60
2022-08-07T20:52:59.689Z,24.60
2022-08-07T20:55:28.658Z,24.50
2022-08-07T20:58:04.085Z,24.50
2022-08-07T21:00:47.081Z,24.40
2022-08-07T21:03:23.325Z,24.40
2022-08-07T21:06:00.831Z,24.30
2022-08-07T21:08:39.346Z,24.20
2022-08-07T21:11:14.333Z,24.10
2022-08-07T21:14:16.127Z,24.00
2022-08-07T21:17:06.405Z,24.00
2022-08-07T21:19:51.305Z,23.90
2022-08-07T21:22:28.344Z,23.90
2022-08-07T21:25:13.551Z,23.80
2022-08-07T21:28:18.884Z,23.70
2022-08-07T21:31:31.316Z,23.70
2022-08-07T21:34:32.570Z,23.30
2022-08-07T21:37:11.413Z,23.60
2022-08-07T21:39:55.058Z,23.50
2022-08-07T21:42:42.275Z,23.40
2022-08-07T21:46:08.910Z,23.30
2022-08-07T21:49:04.768Z,23.20
2022-08-07T21:52:03.978Z,23.10
2022-08-07T21:54:34.118Z,23.00
2022-08-07T21:57:51.851Z,22.90
2022-08-07T22:00:25.176Z,22.80
2022-08-07T22:03:31.049Z,22.70
2022-08-07T22:06:06.005Z,22.50
2022-08-07T22:08:45.852Z,22.40
2022-08-07T22:11:19.610Z,22.40
2022-08-07T22:13:54.878Z,22.50
2022-08-07T22:16:47.538Z,22.30
2022-08-07T22:19:29.458Z,22.20
2022-08-07T22:22:21.457Z,22.20
2022-08-07T22:24:55.233Z,22.10
2022-08-07T22:28:20.323Z,22.10
2022-08-07T22:30:27.592Z,22.00
2022-08-07T22:33:09.326Z,22.00
2022-08-07T22:35:57.920Z,21.90
2022-08-07T22:38:34.515Z,22.20
2022-08-07T22:41:14.198Z,21.80
2022-08-07T22:43:56.181Z,21.60
2022-08-07T22:47:17.353Z,21.60
2022-08-07T22:50:29.174Z,21.60
2022-08-07T22:54:06.927Z,21.50
2022-08-07T22:56:38.039Z,21.50
2022-08-07T22:59:24.369Z,21.30
2022-08-07T23:02:29.639Z,21.20
2022-08-07T23:06:10.127Z,21.20
2022-08-07T23:08:24.101Z,21.60
2022-08-07T23:11:17.490Z,21.10
2022-08-07T23:14:10.827Z,20.80
2022-08-07T23:16:54.734Z,21.00
2022-08-07T23:20:52.482Z,21.00
2022-08-07T23:24:05.112Z,20.90
2022-08-07T23:26:24.999Z,20.80
2022-08-07T23:29:43.111Z,20.80
2022-08-07T23:34:22.103Z,20.90
2022-08-07T23:35:44.887Z,20.50
2022-08-07T23:38:36.565Z,20.90
2022-08-07T23:42:04.116Z,20.70
2022-08-07T23:45:15.143Z,20.70
2022-08-07T23:48:34.497Z,20.60
2022-08-07T23:53:05.707Z,20.60
2022-08-07T23:54:52.067Z,20.60
2022-08-07T23:57:41.633Z,20.60
